Time;durP1;ratioP1;P1;durP2;ratioP2;P2;SDS_P1;SDS_P2;PMS_P1;PMS_P2;Temp;Humidity;BMP_temperature;BMP_pressure;BME280_temperature;BME280_humidity;BME280_pressure;Samples;Min_cycle;Max_cycle;Signal;HPM_P1;HPM_P2
2021/09/06 00:01:11;;;;;;;11.45;6.78;;;;;;;18.31;70.78;101548.09;4953433;28;20151;-81
2021/09/06 00:03:38;;;;;;;9.43;6.30;;;;;;;18.29;70.87;101550.47;4945586;28;20047;-81
2021/09/06 00:06:05;;;;;;;10.63;6.43;;;;;;;18.29;70.94;101558.06;4937022;28;20059;-81
2021/09/06 00:08:31;;;;;;;9.95;5.60;;;;;;;18.29;70.99;101567.28;4954311;28;20391;-81
2021/09/06 00:11:06;;;;;;;11.57;6.90;;;;;;;18.26;70.68;101562.44;4956443;28;20355;-82
2021/09/06 00:13:34;;;;;;;9.50;6.28;;;;;;;18.27;70.74;101561.22;4938145;29;20152;-81
2021/09/06 00:16:02;;;;;;;9.55;5.97;;;;;;;18.28;70.63;101571.25;4962537;28;20057;-82
2021/09/06 00:18:29;;;;;;;8.13;5.80;;;;;;;18.25;70.88;101578.44;4957682;28;20042;-81
2021/09/06 00:20:57;;;;;;;8.63;5.60;;;;;;;18.24;70.67;101571.19;4955546;28;20051;-81
2021/09/06 00:23:25;;;;;;;9.90;6.53;;;;;;;18.22;71.00;101575.56;4954288;28;20075;-81
2021/09/06 00:25:51;;;;;;;9.02;6.45;;;;;;;18.20;70.83;101587.16;4944696;28;20082;-81
2021/09/06 00:28:18;;;;;;;8.52;6.95;;;;;;;18.22;70.80;101589.59;4953524;28;20506;-81
2021/09/06 00:30:45;;;;;;;10.48;6.35;;;;;;;18.20;70.83;101587.16;4953093;28;20134;-81
2021/09/06 00:33:12;;;;;;;9.93;6.30;;;;;;;18.19;71.00;101581.94;4940103;28;20126;-81
2021/09/06 00:35:40;;;;;;;10.77;6.20;;;;;;;18.19;70.91;101590.34;4952453;28;20138;-81
2021/09/06 00:38:07;;;;;;;8.68;6.07;;;;;;;18.19;70.91;101584.72;4936689;28;20976;-81
2021/09/06 00:40:34;;;;;;;7.65;6.18;;;;;;;18.19;70.92;101579.13;4926824;28;20454;-81
2021/09/06 00:43:01;;;;;;;9.05;6.13;;;;;;;18.16;71.05;101574.31;4954601;28;20537;-81
2021/09/06 00:45:27;;;;;;;11.00;7.10;;;;;;;18.15;70.95;101579.09;4954548;28;20057;-81
2021/09/06 00:47:54;;;;;;;11.57;6.45;;;;;;;18.16;70.96;101574.31;4937350;29;20054;-81
2021/09/06 00:50:24;;;;;;;10.15;6.65;;;;;;;18.17;70.98;101571.09;4949876;28;20049;-81
2021/09/06 00:52:50;;;;;;;9.43;6.18;;;;;;;18.19;71.06;101562.31;4936544;28;20138;-81
2021/09/06 00:55:17;;;;;;;11.45;6.63;;;;;;;18.20;70.99;101563.94;4940194;28;20511;-81
2021/09/06 00:57:45;;;;;;;9.57;6.78;;;;;;;18.20;70.91;101553.53;4944531;28;20479;-81
2021/09/06 01:00:14;;;;;;;10.73;6.47;;;;;;;18.23;71.04;101558.41;4931633;28;20150;-81
2021/09/06 01:02:41;;;;;;;11.38;6.63;;;;;;;18.24;71.07;101548.00;4936872;28;20047;-81
2021/09/06 01:05:10;;;;;;;10.77;6.78;;;;;;;18.23;70.95;101546.38;4941630;28;20067;-82
2021/09/06 01:07:38;;;;;;;11.55;5.93;;;;;;;18.25;71.12;101549.59;4948713;28;20047;-81
2021/09/06 01:10:08;;;;;;;10.77;6.97;;;;;;;18.24;71.10;101551.59;4935830;28;20065;-81
2021/09/06 01:12:35;;;;;;;12.38;7.03;;;;;;;18.23;71.15;101546.38;4957149;28;20117;-81
2021/09/06 01:15:04;;;;;;;12.63;7.10;;;;;;;18.22;70.97;101544.75;4952713;28;20432;-81
2021/09/06 01:17:32;;;;;;;10.80;6.18;;;;;;;18.18;71.15;101538.28;4935732;29;20047;-81
2021/09/06 01:19:59;;;;;;;10.68;7.00;;;;;;;18.17;71.08;101537.47;4951145;28;20051;-81
2021/09/06 01:22:26;;;;;;;10.13;6.68;;;;;;;18.15;71.03;101539.84;4953400;28;20090;-81
2021/09/06 01:24:52;;;;;;;9.57;5.78;;;;;;;18.15;71.10;101547.44;4962120;28;20051;-81
2021/09/06 01:27:19;;;;;;;9.52;6.38;;;;;;;18.14;70.85;101554.22;4959464;28;20094;-80
2021/09/06 01:29:46;;;;;;;10.18;6.80;;;;;;;18.13;71.23;101553.44;4952391;28;20047;-81
2021/09/06 01:32:13;;;;;;;11.57;6.90;;;;;;;18.10;71.24;101547.78;4952869;28;20053;-81
2021/09/06 01:34:41;;;;;;;9.48;6.47;;;;;;;18.05;71.21;101546.09;4945230;28;20410;-81
2021/09/06 01:37:08;;;;;;;9.25;6.82;;;;;;;18.03;71.26;101547.66;4951274;28;20039;-80
2021/09/06 01:39:35;;;;;;;9.13;6.78;;;;;;;18.01;71.44;101545.22;4957629;28;20050;-81
2021/09/06 01:42:02;;;;;;;9.80;5.78;;;;;;;17.95;71.25;101546.72;4951807;28;20399;-81
2021/09/06 01:44:28;;;;;;;12.75;6.50;;;;;;;17.94;71.33;101544.31;4935616;28;20078;-81
2021/09/06 01:46:56;;;;;;;13.73;7.15;;;;;;;17.93;71.52;101553.88;4952762;28;20118;-81
2021/09/06 01:49:23;;;;;;;10.57;6.03;;;;;;;17.90;71.49;101546.22;4932400;28;20050;-81
2021/09/06 01:51:50;;;;;;;7.95;5.88;;;;;;;17.88;71.49;101546.63;4950158;28;20051;-81
2021/09/06 01:54:16;;;;;;;8.55;6.60;;;;;;;17.88;71.81;101548.59;4941139;28;20050;-81
2021/09/06 01:56:43;;;;;;;9.02;6.15;;;;;;;17.85;71.34;101543.75;4958658;28;20517;-81
2021/09/06 01:59:10;;;;;;;8.15;6.28;;;;;;;17.84;71.75;101536.53;4934450;29;20075;-81
2021/09/06 02:01:37;;;;;;;10.00;5.95;;;;;;;17.81;71.66;101545.69;4951362;28;20135;-81
2021/09/06 02:04:04;;;;;;;11.35;7.15;;;;;;;17.78;71.79;101541.66;4952952;28;20047;-81
2021/09/06 02:06:31;;;;;;;9.07;7.00;;;;;;;17.78;71.85;101546.44;4957486;28;20138;-81
2021/09/06 02:09:00;;;;;;;10.40;6.95;;;;;;;17.74;71.99;101540.75;4950634;28;20043;-82
2021/09/06 02:11:26;;;;;;;10.75;6.93;;;;;;;17.72;72.05;101547.94;4951600;28;20046;-81
2021/09/06 02:13:53;;;;;;;9.15;6.75;;;;;;;17.68;72.16;101547.06;4934627;28;20051;-81
2021/09/06 02:16:20;;;;;;;10.30;7.35;;;;;;;17.63;72.60;101539.81;4935984;28;20047;-81
2021/09/06 02:18:48;;;;;;;7.82;5.32;;;;;;;17.61;72.71;101545.75;4952034;28;20130;-80
2021/09/06 02:21:15;;;;;;;11.63;6.68;;;;;;;17.59;72.70;101544.50;4933967;28;20455;-81
2021/09/06 02:23:42;;;;;;;9.68;6.68;;;;;;;17.59;72.83;101550.94;4951029;28;20492;-80
2021/09/06 02:26:10;;;;;;;10.50;6.10;;;;;;;17.58;73.09;101557.69;4952675;28;20050;-81
2021/09/06 02:28:37;;;;;;;11.45;7.15;;;;;;;17.58;73.08;101554.09;4951273;28;20039;-81
2021/09/06 02:31:04;;;;;;;11.25;6.03;;;;;;;17.58;73.17;101554.91;4934494;29;20047;-81
2021/09/06 02:33:32;;;;;;;11.93;6.97;;;;;;;17.56;73.14;101548.88;4945841;28;20044;-81
2021/09/06 02:35:59;;;;;;;10.25;7.03;;;;;;;17.56;73.32;101545.25;4932453;28;20047;-82
2021/09/06 02:38:26;;;;;;;12.25;6.40;;;;;;;17.57;72.86;101546.88;4934727;28;20055;-81
2021/09/06 02:40:53;;;;;;;12.18;8.27;;;;;;;17.59;73.06;101534.13;4951354;28;20135;-81
2021/09/06 02:43:20;;;;;;;10.07;6.93;;;;;;;17.60;73.04;101530.16;4948664;28;20126;-81
2021/09/06 02:45:47;;;;;;;10.15;6.38;;;;;;;17.60;73.02;101530.16;4951777;28;20043;-81
2021/09/06 02:48:16;;;;;;;11.52;7.32;;;;;;;17.60;72.97;101529.34;4950869;28;20047;-81
2021/09/06 02:50:43;;;;;;;14.30;7.00;;;;;;;17.59;73.02;101541.72;4951351;28;20150;-81
2021/09/06 02:53:09;;;;;;;14.15;8.70;;;;;;;17.60;72.98;101540.53;4935199;28;20506;-81
2021/09/06 02:55:36;;;;;;;10.30;7.40;;;;;;;17.60;73.25;101544.16;4951768;28;20045;-80
2021/09/06 02:58:03;;;;;;;13.23;8.45;;;;;;;17.59;73.18;101536.13;4933895;28;20789;-81
2021/09/06 03:00:29;;;;;;;13.25;8.25;;;;;;;17.58;73.19;101540.91;4934462;28;20047;-80
2021/09/06 03:02:57;;;;;;;11.73;8.05;;;;;;;17.59;73.29;101544.50;4938732;29;20098;-80
2021/09/06 03:05:23;;;;;;;12.30;7.72;;;;;;;17.59;73.34;101536.13;4951468;28;20059;-81
2021/09/06 03:07:50;;;;;;;9.85;7.22;;;;;;;17.58;73.33;101540.09;4951005;28;20043;-81
2021/09/06 03:10:18;;;;;;;12.77;8.30;;;;;;;17.57;73.36;101542.09;4933469;29;20043;-81
2021/09/06 03:12:44;;;;;;;12.93;7.50;;;;;;;17.57;73.45;101536.50;4949829;28;20372;-81
2021/09/06 03:15:11;;;;;;;13.77;8.68;;;;;;;17.55;73.49;101544.44;4950240;28;20053;-81
2021/09/06 03:17:38;;;;;;;15.60;9.38;;;;;;;17.51;73.60;101543.56;4934242;29;20073;-81
2021/09/06 03:20:06;;;;;;;10.73;7.70;;;;;;;17.49;73.55;101539.50;4950463;28;20499;-80
2021/09/06 03:22:33;;;;;;;14.55;8.10;;;;;;;17.46;73.79;101535.47;4934170;28;20035;-81
2021/09/06 03:24:59;;;;;;;13.07;7.55;;;;;;;17.45;73.83;101530.22;4917469;28;20050;-81
2021/09/06 03:27:26;;;;;;;12.52;8.35;;;;;;;17.42;73.75;101531.78;4945742;29;20578;-80
2021/09/06 03:29:53;;;;;;;15.02;9.23;;;;;;;17.41;73.65;101538.56;4924902;28;20046;-81
2021/09/06 03:32:20;;;;;;;14.27;8.02;;;;;;;17.40;73.64;101533.34;4937351;28;20047;-81
2021/09/06 03:34:46;;;;;;;11.93;8.82;;;;;;;17.37;73.53;101540.50;4931739;28;20051;-81
2021/09/06 03:37:13;;;;;;;16.67;9.35;;;;;;;17.31;74.12;101539.19;4937267;28;20476;-81
2021/09/06 03:39:40;;;;;;;15.48;9.40;;;;;;;17.30;74.10;101553.53;4936902;28;20410;-81
2021/09/06 03:42:07;;;;;;;16.13;9.48;;;;;;;17.23;74.09;101554.22;4953262;28;20113;-80
2021/09/06 03:44:34;;;;;;;14.02;9.10;;;;;;;17.17;74.57;101552.09;4954229;28;20403;-80
2021/09/06 03:47:00;;;;;;;16.67;9.30;;;;;;;17.18;74.55;101551.75;4938426;28;20066;-81
2021/09/06 03:49:29;;;;;;;19.95;10.32;;;;;;;17.20;74.56;101538.19;4954268;28;20054;-81
2021/09/06 03:51:55;;;;;;;13.90;8.57;;;;;;;17.23;74.56;101542.22;4953874;28;20047;-81
2021/09/06 03:54:22;;;;;;;16.75;9.75;;;;;;;17.24;74.59;101532.63;4953167;28;20073;-80
2021/09/06 03:56:49;;;;;;;11.07;8.82;;;;;;;17.26;74.61;101538.69;4954230;28;20047;-81
2021/09/06 03:59:18;;;;;;;14.75;9.75;;;;;;;17.28;74.64;101539.94;4947462;29;20110;-81
2021/09/06 04:01:45;;;;;;;13.98;8.65;;;;;;;17.29;74.42;101530.34;4936895;28;20047;-81
2021/09/06 04:04:12;;;;;;;16.70;9.05;;;;;;;17.29;74.57;101521.94;4932332;28;20035;-81
2021/09/06 04:06:39;;;;;;;17.63;9.20;;;;;;;17.28;74.74;101528.75;4924751;28;20170;-81
2021/09/06 04:09:06;;;;;;;15.98;9.82;;;;;;;17.25;74.68;101528.66;4935168;28;21082;-81
2021/09/06 04:11:33;;;;;;;17.25;10.07;;;;;;;17.23;74.79;101520.66;4938184;28;20126;-81
2021/09/06 04:13:59;;;;;;;14.60;9.23;;;;;;;17.22;74.72;101530.22;4950287;28;20051;-81
2021/09/06 04:16:26;;;;;;;15.90;9.75;;;;;;;17.18;74.88;101537.75;4922934;29;20449;-81
2021/09/06 04:18:53;;;;;;;17.65;9.85;;;;;;;17.17;75.17;101530.53;4951757;29;20150;-81
2021/09/06 04:21:20;;;;;;;15.50;9.75;;;;;;;17.16;75.25;101534.50;4936562;29;20535;-81
2021/09/06 04:23:47;;;;;;;14.38;9.50;;;;;;;17.13;75.32;101532.44;4937011;29;20454;-81
2021/09/06 04:26:14;;;;;;;14.93;9.70;;;;;;;17.11;75.38;101533.97;4952030;28;20043;-81
2021/09/06 04:28:41;;;;;;;16.27;9.45;;;;;;;17.10;75.46;101537.97;4951324;28;20043;-81
2021/09/06 04:31:07;;;;;;;14.55;9.60;;;;;;;17.04;75.72;101534.66;4920630;29;20426;-81
2021/09/06 04:33:34;;;;;;;15.65;10.35;;;;;;;16.99;75.64;101534.97;4950762;29;20058;-81
2021/09/06 04:36:01;;;;;;;15.20;9.40;;;;;;;16.93;76.05;101528.03;4942364;29;20043;-80
2021/09/06 04:38:27;;;;;;;17.45;10.55;;;;;;;16.89;75.99;101539.16;4936123;29;20494;-81
2021/09/06 04:40:54;;;;;;;15.50;9.98;;;;;;;16.83;76.29;101539.84;4951038;29;20057;-81
2021/09/06 04:43:21;;;;;;;17.25;10.60;;;;;;;16.78;76.43;101540.13;4953074;29;20127;-80
2021/09/06 04:45:48;;;;;;;18.20;11.20;;;;;;;16.74;76.53;101542.03;4953433;29;20413;-81
2021/09/06 04:48:14;;;;;;;18.30;11.48;;;;;;;16.68;76.62;101529.53;4952271;28;20065;-80
2021/09/06 04:50:41;;;;;;;20.80;12.75;;;;;;;16.66;76.67;101540.25;4950961;28;20066;-81
2021/09/06 04:53:08;;;;;;;20.40;12.55;;;;;;;16.61;76.80;101544.16;4936181;29;20151;-81
2021/09/06 04:55:35;;;;;;;21.77;12.55;;;;;;;16.59;76.93;101548.50;4951656;28;20055;-81
2021/09/06 04:58:01;;;;;;;20.15;12.60;;;;;;;16.59;77.01;101546.53;4952378;29;20122;-81
2021/09/06 05:00:28;;;;;;;19.17;12.45;;;;;;;16.58;76.83;101546.88;4952730;29;20067;-81
2021/09/06 05:02:55;;;;;;;24.25;12.95;;;;;;;16.60;76.92;101552.94;4953261;28;20043;-80
2021/09/06 05:05:23;;;;;;;19.40;12.52;;;;;;;16.55;76.86;101553.22;4953872;28;20461;-81
2021/09/06 05:07:53;;;;;;;22.20;13.68;;;;;;;16.51;77.11;101555.91;4961687;28;20051;-80
2021/09/06 05:10:20;;;;;;;23.85;14.90;;;;;;;16.51;77.09;101566.25;4937480;28;20398;-81
2021/09/06 05:12:47;;;;;;;25.83;15.38;;;;;;;16.48;77.12;101567.81;4936687;28;20154;-81
2021/09/06 05:15:14;;;;;;;28.00;14.68;;;;;;;16.43;77.32;101574.50;4952214;28;20047;-82
2021/09/06 05:17:40;;;;;;;22.88;13.70;;;;;;;16.39;77.44;101561.59;4940509;28;20047;-81
2021/09/06 05:20:08;;;;;;;30.13;16.17;;;;;;;16.39;77.55;101565.19;4953842;28;20110;-80
2021/09/06 05:22:35;;;;;;;25.02;14.27;;;;;;;16.37;77.58;101573.16;4935865;28;20506;-81
2021/09/06 05:25:02;;;;;;;24.27;14.35;;;;;;;16.35;77.50;101572.72;4932392;28;20483;-80
2021/09/06 05:27:30;;;;;;;23.42;13.95;;;;;;;16.34;77.48;101565.50;4954258;28;20039;-81
2021/09/06 05:29:57;;;;;;;24.67;14.70;;;;;;;16.29;77.45;101571.38;4952103;28;20154;-80
2021/09/06 05:32:24;;;;;;;26.70;14.35;;;;;;;16.27;77.51;101579.31;4952930;28;20050;-80
2021/09/06 05:34:51;;;;;;;26.92;13.00;;;;;;;16.22;77.56;101574.00;4953577;28;20077;-80
2021/09/06 05:37:17;;;;;;;20.83;13.23;;;;;;;16.23;77.52;101572.81;4951970;28;20051;-81
2021/09/06 05:39:44;;;;;;;29.10;15.82;;;;;;;16.19;77.76;101566.34;4953184;28;20039;-80
2021/09/06 05:42:11;;;;;;;22.88;14.30;;;;;;;16.18;77.75;101569.47;4935323;28;20039;-80
2021/09/06 05:44:38;;;;;;;22.73;14.07;;;;;;;16.18;77.83;101581.47;4934729;29;20057;-81
2021/09/06 05:47:04;;;;;;;24.17;13.60;;;;;;;16.14;78.00;101591.78;4953214;28;20154;-81
2021/09/06 05:49:31;;;;;;;28.73;14.60;;;;;;;16.11;78.13;101592.50;4950594;28;20039;-80
2021/09/06 05:51:58;;;;;;;27.30;14.20;;;;;;;16.08;77.99;101582.03;4920603;28;20054;-81
2021/09/06 05:54:25;;;;;;;26.15;14.77;;;;;;;16.08;78.00;101586.81;4955696;28;20043;-81
2021/09/06 05:56:51;;;;;;;22.70;14.35;;;;;;;16.02;78.41;101589.06;4951485;28;20057;-82
2021/09/06 05:59:18;;;;;;;23.88;14.10;;;;;;;16.03;78.23;101585.09;4951923;28;20190;-80
2021/09/06 06:01:45;;;;;;;23.13;14.13;;;;;;;16.05;78.21;101590.31;4934245;28;20564;-81
2021/09/06 06:04:12;;;;;;;22.98;13.93;;;;;;;16.07;78.33;101588.78;4934231;28;20074;-81
2021/09/06 06:06:39;;;;;;;23.85;14.23;;;;;;;16.09;78.33;101588.44;4952321;28;20103;-80
2021/09/06 06:09:06;;;;;;;28.23;15.15;;;;;;;16.13;78.28;101590.13;4935362;29;20417;-82
2021/09/06 06:11:37;;;;;;;28.70;16.08;;;;;;;16.18;78.22;101587.06;4932973;29;20051;-81
2021/09/06 06:14:05;;;;;;;30.15;14.65;;;;;;;16.21;78.31;101597.50;4949345;28;20117;-81
2021/09/06 06:16:32;;;;;;;24.15;15.65;;;;;;;16.25;78.04;101587.25;4934871;29;20043;-81
2021/09/06 06:18:59;;;;;;;28.00;17.13;;;;;;;16.31;78.00;101582.16;4939519;28;20039;-81
2021/09/06 06:21:27;;;;;;;30.83;16.05;;;;;;;16.36;77.88;101587.50;4953698;28;20039;-80
2021/09/06 06:23:54;;;;;;;26.40;16.65;;;;;;;16.38;77.88;101591.56;4934930;28;20047;-81
2021/09/06 06:26:22;;;;;;;30.23;15.48;;;;;;;16.41;77.91;101590.78;4933193;28;20454;-81
2021/09/06 06:28:49;;;;;;;21.33;13.38;;;;;;;16.43;78.29;101596.84;4951954;28;20079;-80
2021/09/06 06:31:16;;;;;;;25.38;16.38;;;;;;;16.42;78.10;101603.59;4937728;29;20050;-80
2021/09/06 06:33:43;;;;;;;25.40;14.65;;;;;;;16.43;78.20;101598.84;4933736;28;20051;-80
2021/09/06 06:36:09;;;;;;;30.13;15.15;;;;;;;16.48;78.26;101606.13;4951053;28;20507;-80
2021/09/06 06:38:36;;;;;;;24.25;14.55;;;;;;;16.50;78.41;101610.16;4951932;28;20032;-81
2021/09/06 06:41:04;;;;;;;25.88;15.40;;;;;;;16.50;78.52;101612.16;4952252;28;20047;-81
2021/09/06 06:43:30;;;;;;;25.92;14.75;;;;;;;16.55;78.30;101617.50;4951250;28;20122;-80
2021/09/06 06:45:59;;;;;;;31.08;15.60;;;;;;;16.60;78.51;101614.44;4945020;28;20492;-81
2021/09/06 06:48:29;;;;;;;27.75;14.93;;;;;;;16.65;78.44;101612.16;4951123;28;20411;-81
2021/09/06 06:51:13;;;;;;;27.05;14.48;;;;;;;16.70;78.29;101620.25;4948478;28;20046;-80
2021/09/06 06:53:40;;;;;;;23.90;14.40;;;;;;;16.74;78.23;101623.94;4934911;29;20057;-81
2021/09/06 06:56:06;;;;;;;23.08;14.55;;;;;;;16.79;78.05;101625.63;4951124;28;20487;-81
2021/09/06 06:58:33;;;;;;;25.33;14.43;;;;;;;16.83;78.38;101623.75;4934941;29;20122;-81
2021/09/06 07:01:01;;;;;;;23.75;15.10;;;;;;;16.88;78.31;101626.25;4949495;28;20035;-79
2021/09/06 07:03:29;;;;;;;24.80;13.48;;;;;;;16.91;78.49;101631.09;4951626;28;20043;-80
2021/09/06 07:05:56;;;;;;;22.98;14.02;;;;;;;16.94;78.29;101636.75;4951360;28;20055;-80
2021/09/06 07:08:23;;;;;;;26.08;15.05;;;;;;;16.96;78.38;101628.84;4953503;28;20911;-80
2021/09/06 07:10:50;;;;;;;23.27;13.98;;;;;;;16.99;78.38;101632.88;4931854;28;20058;-80
2021/09/06 07:13:16;;;;;;;23.90;14.48;;;;;;;17.05;78.31;101634.19;4951461;28;20126;-81
2021/09/06 07:15:43;;;;;;;25.20;14.40;;;;;;;17.09;78.29;101635.09;4938318;28;20050;-81
2021/09/06 07:18:10;;;;;;;21.83;14.82;;;;;;;17.13;78.17;101635.19;4948377;28;20039;-80
2021/09/06 07:20:37;;;;;;;23.35;14.18;;;;;;;17.17;78.22;101636.03;4942351;28;20066;-80
2021/09/06 07:23:04;;;;;;;27.58;15.05;;;;;;;17.21;77.98;101646.13;4930495;28;20857;-80
2021/09/06 07:25:30;;;;;;;23.98;14.45;;;;;;;17.25;77.90;101635.00;4939230;28;20056;-80
2021/09/06 07:27:57;;;;;;;26.15;14.30;;;;;;;17.27;77.98;101641.84;4955415;28;20047;-80
2021/09/06 07:30:24;;;;;;;25.55;14.15;;;;;;;17.27;77.88;101639.06;4954705;28;20039;-80
2021/09/06 07:32:51;;;;;;;26.42;14.45;;;;;;;17.31;77.95;101642.75;4937635;28;20569;-80
2021/09/06 07:35:18;;;;;;;22.52;14.10;;;;;;;17.37;77.92;101651.63;4951844;28;20039;-80
2021/09/06 07:37:45;;;;;;;25.20;13.45;;;;;;;17.43;77.58;101658.56;4956293;28;20122;-80
2021/09/06 07:40:12;;;;;;;27.05;14.57;;;;;;;17.46;77.54;101661.44;4955072;28;20502;-80
2021/09/06 07:42:40;;;;;;;22.35;12.98;;;;;;;17.51;77.53;101661.16;4936841;29;20055;-80
2021/09/06 07:45:10;;;;;;;21.63;12.90;;;;;;;17.53;77.46;101667.22;4952109;28;20129;-80
2021/09/06 07:47:37;;;;;;;22.55;13.05;;;;;;;17.58;77.25;101672.50;4959428;28;20134;-80
2021/09/06 07:50:08;;;;;;;25.90;12.95;;;;;;;17.61;77.21;101666.16;4953259;28;20070;-80
2021/09/06 07:52:36;;;;;;;17.70;11.50;;;;;;;17.68;77.30;101673.09;4950961;28;20316;-81
2021/09/06 07:55:05;;;;;;;19.73;11.65;;;;;;;17.75;76.97;101665.63;4941141;29;20055;-80
2021/09/06 07:57:33;;;;;;;20.08;12.05;;;;;;;17.81;76.97;101671.75;4954188;29;20048;-80
2021/09/06 08:00:00;;;;;;;17.42;11.63;;;;;;;17.90;76.87;101680.69;4946454;28;20115;-81
2021/09/06 08:02:26;;;;;;;20.70;12.45;;;;;;;17.98;76.72;101676.84;4949714;28;20078;-81
2021/09/06 08:04:53;;;;;;;16.80;10.50;;;;;;;18.07;76.51;101680.22;4933778;29;20062;-81
2021/09/06 08:07:20;;;;;;;21.60;13.40;;;;;;;18.15;76.47;101679.16;4943347;28;20054;-81
2021/09/06 08:09:47;;;;;;;18.33;10.75;;;;;;;18.21;76.57;101677.69;4943114;28;20049;-80
2021/09/06 08:12:14;;;;;;;18.25;10.57;;;;;;;18.27;76.46;101682.59;4942761;28;20086;-80
2021/09/06 08:14:40;;;;;;;16.90;10.48;;;;;;;18.36;76.28;101690.75;4946819;28;20488;-80
2021/09/06 08:17:07;;;;;;;20.63;11.10;;;;;;;18.45;75.97;101685.72;4948375;28;20062;-79
2021/09/06 08:19:34;;;;;;;19.80;10.88;;;;;;;18.54;75.67;101691.06;4950660;28;20146;-80
2021/09/06 08:22:01;;;;;;;18.35;11.75;;;;;;;18.63;75.42;101691.63;4934437;28;20047;-80
2021/09/06 08:24:28;;;;;;;17.77;8.70;;;;;;;18.69;75.45;101688.09;4949376;28;20461;-79
2021/09/06 08:26:54;;;;;;;21.85;12.18;;;;;;;18.79;75.42;101690.28;4936330;29;20137;-77
2021/09/06 08:29:22;;;;;;;17.63;9.10;;;;;;;18.89;75.48;101691.63;4952086;28;20046;-77
2021/09/06 08:31:49;;;;;;;16.27;8.98;;;;;;;18.98;76.12;101696.94;4935302;28;20418;-77
2021/09/06 08:34:16;;;;;;;13.95;8.38;;;;;;;19.12;75.72;101697.13;4951647;28;20035;-78
2021/09/06 08:36:42;;;;;;;16.35;8.95;;;;;;;19.24;76.04;101697.72;4950851;28;20053;-79
2021/09/06 08:39:09;;;;;;;14.27;8.52;;;;;;;19.40;76.19;101700.38;4947841;28;20123;-78
2021/09/06 08:41:38;;;;;;;18.45;8.93;;;;;;;19.57;76.45;101699.75;4951051;28;20039;-79
2021/09/06 08:44:04;;;;;;;14.60;9.10;;;;;;;19.80;76.42;101702.44;4949562;28;20054;-79
2021/09/06 08:46:31;;;;;;;12.00;7.53;;;;;;;20.05;75.78;101707.13;4937685;28;20053;-79
2021/09/06 08:48:58;;;;;;;15.70;8.05;;;;;;;20.38;75.09;101711.88;4932574;28;20400;-79
2021/09/06 08:51:25;;;;;;;15.55;7.95;;;;;;;20.74;73.59;101712.97;4933588;29;20047;-79
2021/09/06 08:53:52;;;;;;;11.82;7.63;;;;;;;21.13;72.04;101714.06;4930150;29;20083;-79
2021/09/06 08:56:21;;;;;;;13.98;7.63;;;;;;;21.64;70.57;101710.25;4946973;28;20051;-80
2021/09/06 08:58:59;;;;;;;12.55;7.53;;;;;;;22.17;69.09;101699.94;4949625;28;20503;-79
2021/09/06 09:01:37;;;;;;;15.75;8.60;;;;;;;22.80;66.90;101704.00;4920559;29;20051;-80
2021/09/06 09:04:16;;;;;;;12.90;6.97;;;;;;;23.41;64.11;101702.66;4968475;28;20050;-80
2021/09/06 09:06:48;;;;;;;12.43;7.88;;;;;;;23.91;62.41;101700.38;4960722;28;20114;-79
2021/09/06 09:09:41;;;;;;;13.38;8.30;;;;;;;24.41;60.97;101707.31;4950198;28;20055;-79
2021/09/06 09:12:10;;;;;;;11.77;8.35;;;;;;;24.77;61.48;101708.63;4933772;29;20110;-80
2021/09/06 09:14:45;;;;;;;14.52;8.15;;;;;;;25.05;59.55;101713.22;4952237;28;20047;-82
2021/09/06 09:17:12;;;;;;;12.73;8.98;;;;;;;25.11;59.08;101716.41;4918599;28;20055;-80
2021/09/06 09:19:40;;;;;;;12.70;8.38;;;;;;;25.12;58.43;101712.34;4935779;28;20047;-79
2021/09/06 09:22:10;;;;;;;12.65;9.13;;;;;;;24.83;58.10;101704.13;4935436;29;20039;-79
2021/09/06 09:24:37;;;;;;;14.18;8.70;;;;;;;24.54;58.16;101705.59;4936705;28;20042;-79
2021/09/06 09:27:07;;;;;;;15.70;8.50;;;;;;;24.63;57.62;101717.25;4951798;28;20051;-80
2021/09/06 09:29:35;;;;;;;14.93;9.55;;;;;;;24.72;57.74;101717.59;4953305;28;20035;-80
2021/09/06 09:32:08;;;;;;;14.75;9.38;;;;;;;24.89;57.46;101709.38;4935872;28;20048;-80
2021/09/06 09:34:42;;;;;;;12.40;8.85;;;;;;;25.22;56.55;101717.09;4943973;28;20051;-80
2021/09/06 09:37:11;;;;;;;12.98;9.50;;;;;;;25.53;56.01;101727.28;4950564;28;20051;-80
2021/09/06 09:39:38;;;;;;;10.73;8.27;;;;;;;25.70;55.44;101723.41;4938124;28;20039;-83
2021/09/06 09:42:08;;;;;;;12.77;9.07;;;;;;;25.85;54.96;101724.81;4951400;28;20043;-83
2021/09/06 09:44:48;;;;;;;15.13;10.18;;;;;;;26.07;53.89;101727.34;4953916;28;20058;-82
2021/09/06 09:47:17;;;;;;;13.75;8.98;;;;;;;26.29;53.49;101734.34;4960003;28;20065;-84
2021/09/06 09:49:45;;;;;;;12.57;9.00;;;;;;;26.40;53.51;101723.59;4939408;28;20517;-81
2021/09/06 09:52:12;;;;;;;11.35;9.13;;;;;;;26.57;53.08;101722.53;4920908;28;20714;-81
2021/09/06 09:54:39;;;;;;;13.88;9.55;;;;;;;26.58;52.53;101729.81;4930785;29;20056;-82
2021/09/06 09:57:05;;;;;;;14.13;9.52;;;;;;;26.63;52.14;101725.69;4926645;29;20094;-81
2021/09/06 09:59:33;;;;;;;16.60;8.68;;;;;;;26.67;52.01;101715.84;4919764;28;20046;-81
2021/09/06 10:02:05;;;;;;;12.27;9.77;;;;;;;26.63;51.44;101720.81;4935214;28;20488;-81
2021/09/06 10:05:07;;;;;;;10.93;8.68;;;;;;;26.71;51.27;101710.94;4944693;29;20072;-81
2021/09/06 10:07:39;;;;;;;15.43;9.48;;;;;;;26.79;51.13;101718.13;4922034;29;20040;-82
2021/09/06 10:10:21;;;;;;;11.45;8.48;;;;;;;26.92;50.91;101710.56;4923013;29;20046;-82
2021/09/06 10:13:01;;;;;;;11.77;8.68;;;;;;;27.06;50.76;101703.78;4902839;29;20107;-83
2021/09/06 10:15:28;;;;;;;12.20;9.35;;;;;;;27.13;50.48;101710.16;4930551;29;20071;-82
2021/09/06 10:17:55;;;;;;;11.63;9.32;;;;;;;27.01;50.51;101713.63;4907296;29;20054;-82
2021/09/06 10:20:24;;;;;;;12.70;8.38;;;;;;;27.23;50.15;101716.06;4927196;29;20044;-82
2021/09/06 10:23:03;;;;;;;12.13;8.18;;;;;;;27.41;49.26;101713.69;4920853;29;20137;-80
2021/09/06 10:25:32;;;;;;;14.77;9.20;;;;;;;27.47;49.43;101712.75;4926336;29;20110;-80
2021/09/06 10:28:06;;;;;;;12.73;9.10;;;;;;;27.54;49.05;101708.94;4909090;29;20834;-81
2021/09/06 10:30:48;;;;;;;9.98;8.35;;;;;;;27.47;48.81;101700.56;4931802;29;20043;-81
2021/09/06 10:33:32;;;;;;;16.35;9.90;;;;;;;26.85;49.35;101705.00;4932382;29;20035;-81
2021/09/06 10:36:12;;;;;;;14.00;8.88;;;;;;;26.11;50.50;101705.38;4921000;29;20055;-80
2021/09/06 10:38:45;;;;;;;12.48;9.60;;;;;;;25.42;51.53;101706.72;4934567;29;20052;-81
2021/09/06 10:41:17;;;;;;;18.58;10.23;;;;;;;24.94;52.32;101706.06;4921424;29;20058;-81
2021/09/06 10:44:07;;;;;;;12.40;9.13;;;;;;;24.79;52.82;101697.72;4916228;29;20052;-81
2021/09/06 10:46:33;;;;;;;11.20;8.93;;;;;;;24.60;53.30;101691.78;4933802;29;20661;-81
2021/09/06 10:49:03;;;;;;;15.95;8.63;;;;;;;24.60;54.09;101695.44;4937228;29;20130;-82
2021/09/06 10:51:36;;;;;;;11.18;7.97;;;;;;;24.73;54.31;101690.84;4936862;29;20595;-80
2021/09/06 10:54:07;;;;;;;12.32;9.07;;;;;;;24.64;53.92;101699.03;4938272;29;20082;-81
2021/09/06 10:56:35;;;;;;;14.63;8.75;;;;;;;24.73;53.92;101702.19;4921413;29;20126;-82
2021/09/06 10:59:03;;;;;;;14.75;9.00;;;;;;;24.61;54.22;101696.22;4926993;29;20812;-81
2021/09/06 11:01:33;;;;;;;14.10;9.73;;;;;;;24.20;54.70;101696.16;4937066;29;20051;-82
2021/09/06 11:04:00;;;;;;;10.73;8.67;;;;;;;23.78;55.56;101691.56;4934113;29;20044;-82
2021/09/06 11:06:28;;;;;;;11.68;9.45;;;;;;;23.62;56.31;101694.88;4923409;29;20059;-82
2021/09/06 11:08:56;;;;;;;13.10;8.40;;;;;;;23.82;56.36;101702.84;4930442;29;20043;-81
2021/09/06 11:11:29;;;;;;;18.17;10.45;;;;;;;24.11;56.23;101698.66;4921208;29;20083;-83
2021/09/06 11:13:56;;;;;;;14.00;9.73;;;;;;;24.43;55.73;101699.22;4916413;29;20679;-82
2021/09/06 11:16:38;;;;;;;17.50;9.40;;;;;;;24.58;55.71;101700.72;4908791;29;20138;-81
2021/09/06 11:19:13;;;;;;;15.10;9.45;;;;;;;24.64;55.48;101701.06;4929393;29;20047;-81